Time;durP1;ratioP1;P1;durP2;ratioP2;P2;SDS_P1;SDS_P2;PMS_P1;PMS_P2;Temp;Humidity;BMP_temperature;BMP_pressure;BME280_temperature;BME280_humidity;BME280_pressure;Samples;Min_cycle;Max_cycle;Signal;HPM_P1;HPM_P2
2021/03/10 00:02:16;;;;;;;43.45;31.02;;;;;;;8.13;55.55;100511.31;4999097;28;20049;-63
2021/03/10 00:04:41;;;;;;;41.90;30.42;;;;;;;8.13;55.56;100516.75;4999789;28;20483;-63
2021/03/10 00:07:07;;;;;;;45.65;31.42;;;;;;;8.08;55.49;100519.44;4998334;28;20032;-62
2021/03/10 00:09:32;;;;;;;43.58;30.92;;;;;;;8.02;55.64;100527.50;4994873;28;20037;-63
2021/03/10 00:11:58;;;;;;;44.10;30.27;;;;;;;7.89;55.90;100514.38;4998902;28;20465;-62
2021/03/10 00:14:23;;;;;;;45.00;30.55;;;;;;;7.93;56.25;100509.25;4998149;28;20022;-63
2021/03/10 00:16:49;;;;;;;43.15;30.58;;;;;;;7.42;56.59;100433.59;4997351;28;20031;-63
2021/03/10 00:19:14;;;;;;;45.88;32.40;;;;;;;7.87;56.79;100517.34;4999990;28;20030;-63
2021/03/10 00:21:40;;;;;;;45.13;31.35;;;;;;;7.89;56.60;100517.09;4997368;28;20172;-63
2021/03/10 00:24:05;;;;;;;44.67;30.55;;;;;;;7.92;56.68;100507.59;4998583;28;20033;-63
2021/03/10 00:26:31;;;;;;;44.53;30.13;;;;;;;7.90;56.57;100513.31;4995077;28;20015;-63
2021/03/10 00:28:56;;;;;;;45.15;30.48;;;;;;;7.83;56.26;100509.97;4996191;28;20057;-63
2021/03/10 00:31:22;;;;;;;41.20;29.17;;;;;;;7.80;56.52;100497.75;4997162;28;20100;-63
2021/03/10 00:33:47;;;;;;;41.47;30.50;;;;;;;7.90;56.09;100507.88;4998075;28;20069;-63
2021/03/10 00:36:13;;;;;;;47.20;31.30;;;;;;;7.91;56.46;100505.97;4997128;28;20113;-62
2021/03/10 00:38:38;;;;;;;45.60;30.33;;;;;;;7.90;55.98;100501.59;4997001;28;21375;-62
2021/03/10 00:41:03;;;;;;;44.53;30.48;;;;;;;7.92;56.10;100505.72;4995075;28;20398;-62
2021/03/10 00:43:29;;;;;;;41.85;30.02;;;;;;;7.90;56.34;100501.59;4992950;28;20022;-62
2021/03/10 00:45:55;;;;;;;44.90;31.58;;;;;;;7.93;56.01;100512.78;4996437;28;20541;-62
2021/03/10 00:48:20;;;;;;;44.85;30.63;;;;;;;7.94;56.00;100503.53;4997702;28;20026;-62
2021/03/10 00:50:46;;;;;;;41.45;30.35;;;;;;;7.92;55.93;100508.44;4994934;28;20113;-62
2021/03/10 00:53:11;;;;;;;48.72;30.52;;;;;;;7.70;56.03;100484.88;4996144;28;20026;-62
2021/03/10 00:55:37;;;;;;;43.45;29.63;;;;;;;7.83;55.91;100510.78;4995233;28;20019;-62
2021/03/10 00:58:03;;;;;;;43.58;31.58;;;;;;;7.79;56.50;100508.84;4994135;28;20644;-62
2021/03/10 01:00:28;;;;;;;40.42;29.50;;;;;;;7.79;56.27;100506.13;4996012;28;20478;-62
2021/03/10 01:02:53;;;;;;;42.13;30.30;;;;;;;7.78;56.12;100508.03;4994698;28;20037;-62
2021/03/10 01:05:19;;;;;;;42.92;30.77;;;;;;;7.77;56.24;100500.97;4996497;28;20033;-62
2021/03/10 01:07:45;;;;;;;47.15;31.67;;;;;;;7.68;56.19;100487.06;4996407;28;20026;-62
2021/03/10 01:10:11;;;;;;;44.05;30.83;;;;;;;7.75;56.33;100496.88;4997641;28;20042;-62
2021/03/10 01:12:38;;;;;;;43.63;30.23;;;;;;;7.77;55.94;100492.00;4996613;28;20034;-61
2021/03/10 01:15:08;;;;;;;44.90;31.52;;;;;;;7.74;55.96;100493.31;4997326;28;20500;-62
2021/03/10 01:17:34;;;;;;;46.13;31.15;;;;;;;7.59;56.04;100480.44;4997590;28;20026;-62
2021/03/10 01:19:59;;;;;;;46.00;32.03;;;;;;;7.66;56.29;100482.94;4997628;28;20049;-62
2021/03/10 01:22:25;;;;;;;43.53;30.25;;;;;;;7.69;56.46;100496.81;4997825;28;20110;-62
2021/03/10 01:24:50;;;;;;;43.53;30.33;;;;;;;7.61;56.25;100489.13;4997402;28;20023;-62
2021/03/10 01:27:17;;;;;;;43.63;29.27;;;;;;;7.49;56.57;100475.72;4997935;28;20026;-62
2021/03/10 01:29:44;;;;;;;46.22;30.80;;;;;;;7.52;56.39;100487.97;4994615;28;20458;-62
2021/03/10 01:32:10;;;;;;;43.80;30.35;;;;;;;7.44;56.62;100483.81;4991698;28;20030;-62
2021/03/10 01:34:35;;;;;;;47.53;31.92;;;;;;;7.47;56.82;100479.75;4995855;28;20030;-62
2021/03/10 01:37:00;;;;;;;46.08;30.33;;;;;;;7.45;56.21;100481.91;4997537;28;20033;-62
2021/03/10 01:39:26;;;;;;;43.95;30.83;;;;;;;7.36;56.57;100485.06;4996755;28;20038;-62
2021/03/10 01:41:51;;;;;;;44.65;29.60;;;;;;;7.31;56.51;100476.91;4997341;28;20041;-62
2021/03/10 01:44:17;;;;;;;47.70;30.77;;;;;;;7.32;57.00;100475.00;4997497;28;20657;-62
2021/03/10 01:46:42;;;;;;;45.47;31.60;;;;;;;7.32;57.13;100462.25;4996457;28;20503;-62
2021/03/10 01:49:09;;;;;;;41.97;29.85;;;;;;;7.32;56.78;100475.81;4997282;28;20440;-62
2021/03/10 01:51:34;;;;;;;42.75;29.65;;;;;;;7.29;56.73;100473.59;4996016;28;20030;-62
2021/03/10 01:54:00;;;;;;;42.22;29.98;;;;;;;7.20;57.09;100465.13;4994938;28;20037;-62
2021/03/10 01:56:26;;;;;;;46.13;31.35;;;;;;;7.15;57.21;100450.69;4996972;28;20109;-62
2021/03/10 01:58:53;;;;;;;44.97;29.83;;;;;;;7.22;56.91;100465.69;4997344;28;20034;-62
2021/03/10 02:01:19;;;;;;;42.75;30.95;;;;;;;7.24;57.21;100468.13;4987855;28;20034;-62
2021/03/10 02:03:44;;;;;;;41.83;29.83;;;;;;;7.23;57.18;100469.22;4997987;28;20065;-62
2021/03/10 02:06:21;;;;;;;45.38;30.75;;;;;;;6.99;57.38;100453.22;4997392;28;20049;-62
2021/03/10 02:08:54;;;;;;;44.33;31.13;;;;;;;7.12;57.71;100476.41;4996165;28;20485;-62
2021/03/10 02:11:33;;;;;;;47.30;30.92;;;;;;;6.12;57.97;100326.41;4998040;28;20058;-62
2021/03/10 02:14:04;;;;;;;44.50;30.05;;;;;;;7.01;58.29;100463.81;4996651;28;20129;-62
2021/03/10 02:17:05;;;;;;;42.28;30.42;;;;;;;7.02;58.56;100463.56;4996945;28;20109;-62
2021/03/10 02:20:03;;;;;;;43.00;30.40;;;;;;;7.03;58.66;100462.47;4990642;28;20044;-62
2021/03/10 02:23:10;;;;;;;44.42;30.52;;;;;;;7.08;58.38;100461.72;4997383;28;20048;-62
2021/03/10 02:26:04;;;;;;;43.58;31.08;;;;;;;7.09;58.29;100455.22;4997408;28;20033;-62
2021/03/10 02:28:31;;;;;;;47.83;30.95;;;;;;;7.09;58.21;100455.22;4994896;28;20105;-62
2021/03/10 02:30:59;;;;;;;42.42;30.13;;;;;;;7.07;58.25;100447.34;4997474;28;20139;-62
2021/03/10 02:33:27;;;;;;;43.63;29.98;;;;;;;7.12;58.09;100459.31;4997270;28;20050;-62
2021/03/10 02:36:02;;;;;;;46.28;30.70;;;;;;;7.09;58.43;100456.06;5000185;28;20026;-62
2021/03/10 02:38:28;;;;;;;43.65;30.45;;;;;;;7.09;58.03;100449.78;5000934;28;20026;-62
2021/03/10 02:40:55;;;;;;;44.47;30.92;;;;;;;7.08;58.41;100450.88;5001450;28;20350;-62
2021/03/10 02:43:22;;;;;;;42.42;29.48;;;;;;;7.05;58.06;100444.06;5000913;28;20026;-62
2021/03/10 02:45:50;;;;;;;43.90;30.38;;;;;;;6.89;58.39;100417.84;4997961;28;20362;-62
2021/03/10 02:48:17;;;;;;;44.97;31.17;;;;;;;6.91;58.26;100427.34;4993830;28;20210;-62
2021/03/10 02:50:44;;;;;;;42.30;30.08;;;;;;;7.04;58.23;100436.19;4999593;28;20037;-62
2021/03/10 02:53:10;;;;;;;43.47;29.52;;;;;;;7.04;58.03;100450.56;5001910;28;20054;-62
2021/03/10 02:55:37;;;;;;;44.47;29.17;;;;;;;6.99;58.18;100442.38;5000672;28;20045;-62
2021/03/10 02:58:03;;;;;;;41.40;29.92;;;;;;;7.00;58.20;100457.56;4999222;28;20054;-62
2021/03/10 03:00:30;;;;;;;45.70;30.63;;;;;;;7.00;58.30;100457.56;4999628;28;20037;-62
2021/03/10 03:02:55;;;;;;;48.97;30.45;;;;;;;6.85;58.45;100436.50;5001203;28;20037;-62
2021/03/10 03:05:21;;;;;;;48.72;31.05;;;;;;;6.87;58.16;100438.97;5005862;28;20026;-62
2021/03/10 03:07:48;;;;;;;42.88;29.38;;;;;;;6.96;58.32;100455.63;4997999;28;20046;-62
2021/03/10 03:10:26;;;;;;;44.28;30.55;;;;;;;6.89;58.32;100447.66;5003467;28;20032;-62
2021/03/10 03:12:52;;;;;;;42.55;29.45;;;;;;;6.73;58.17;100427.72;4996942;28;20084;-62
2021/03/10 03:15:20;;;;;;;43.47;31.27;;;;;;;6.86;58.49;100449.00;5000788;28;20034;-62
2021/03/10 03:17:47;;;;;;;45.28;29.77;;;;;;;6.83;58.28;100457.63;4996238;28;20034;-62
2021/03/10 03:20:15;;;;;;;43.83;30.33;;;;;;;6.80;58.73;100450.00;5000031;28;20092;-62
2021/03/10 03:22:46;;;;;;;43.13;30.50;;;;;;;6.81;58.29;100459.78;4995376;28;20040;-62
2021/03/10 03:25:17;;;;;;;45.35;30.80;;;;;;;6.79;58.38;100467.34;5000948;28;20026;-62
2021/03/10 03:27:49;;;;;;;46.78;29.25;;;;;;;6.67;58.28;100453.06;5000357;28;20522;-62
2021/03/10 03:30:16;;;;;;;44.95;30.50;;;;;;;6.76;58.46;100470.53;4999181;28;20022;-62
2021/03/10 03:32:43;;;;;;;44.97;30.58;;;;;;;6.73;58.84;100466.44;4999699;28;20026;-62
2021/03/10 03:35:11;;;;;;;43.85;30.23;;;;;;;6.73;58.62;100469.16;4999452;28;20037;-62
2021/03/10 03:37:37;;;;;;;41.17;28.15;;;;;;;6.69;58.59;100469.91;4991083;28;20371;-62
2021/03/10 03:40:09;;;;;;;41.55;28.92;;;;;;;6.67;59.00;100475.59;4999272;28;20041;-62
2021/03/10 03:42:34;;;;;;;46.30;29.58;;;;;;;6.61;59.16;100482.03;4998724;28;20018;-62
2021/03/10 03:45:00;;;;;;;47.75;29.92;;;;;;;6.56;59.58;100480.06;4999112;28;20041;-62
2021/03/10 03:47:26;;;;;;;40.35;29.35;;;;;;;6.39;59.75;100447.56;4987447;28;20030;-62
2021/03/10 03:49:52;;;;;;;43.38;29.67;;;;;;;6.39;59.80;100457.59;4998958;28;20030;-62
2021/03/10 03:52:17;;;;;;;46.17;30.38;;;;;;;6.51;60.04;100468.31;4997951;28;20050;-61
2021/03/10 03:54:42;;;;;;;43.22;31.15;;;;;;;6.52;60.15;100472.69;4988383;28;20037;-62
2021/03/10 03:57:08;;;;;;;48.53;29.83;;;;;;;6.37;60.11;100449.69;4998714;28;20496;-62
2021/03/10 03:59:35;;;;;;;48.03;30.80;;;;;;;6.45;60.03;100473.66;4998619;28;20040;-62
2021/03/10 04:02:00;;;;;;;43.47;29.75;;;;;;;6.15;60.43;100433.44;4997145;28;20769;-62
2021/03/10 04:04:26;;;;;;;46.97;30.98;;;;;;;6.45;60.38;100475.56;4999040;28;20022;-62
2021/03/10 04:06:52;;;;;;;44.55;30.40;;;;;;;6.41;59.90;100468.97;4998457;28;20027;-62
2021/03/10 04:09:17;;;;;;;45.90;30.05;;;;;;;6.42;59.86;100476.88;4997491;28;20022;-62
2021/03/10 04:11:44;;;;;;;42.88;29.23;;;;;;;6.49;59.97;100484.00;4998622;28;20045;-62
2021/03/10 04:14:11;;;;;;;39.22;28.60;;;;;;;6.31;59.90;100450.69;4998592;28;20096;-62
2021/03/10 04:16:37;;;;;;;47.78;29.92;;;;;;;6.49;59.58;100478.59;4998719;28;20077;-62
2021/03/10 04:19:03;;;;;;;43.30;30.08;;;;;;;6.43;59.65;100459.56;4998072;28;20026;-62
2021/03/10 04:21:29;;;;;;;43.13;28.35;;;;;;;6.45;59.84;100472.84;4998507;28;20033;-62
2021/03/10 04:23:54;;;;;;;41.70;29.33;;;;;;;6.26;59.99;100446.03;4998156;28;20022;-62
2021/03/10 04:26:19;;;;;;;39.63;28.83;;;;;;;6.28;60.05;100451.22;4998366;28;20077;-62
2021/03/10 04:28:45;;;;;;;43.28;28.67;;;;;;;6.23;59.74;100445.72;4970735;28;703694;-62
2021/03/10 04:31:10;;;;;;;41.67;28.73;;;;;;;6.34;59.74;100468.34;4999350;28;20061;-62
2021/03/10 04:33:36;;;;;;;42.53;29.10;;;;;;;6.40;60.04;100476.28;4999768;28;20030;-62
2021/03/10 04:36:01;;;;;;;41.90;28.88;;;;;;;6.39;60.01;100477.34;4998896;28;20018;-62
2021/03/10 04:38:28;;;;;;;40.47;28.65;;;;;;;6.36;59.56;100477.88;4999503;28;20030;-62
2021/03/10 04:40:53;;;;;;;42.50;29.13;;;;;;;6.39;59.73;100484.69;4998734;28;20018;-62
2021/03/10 04:43:19;;;;;;;40.33;29.13;;;;;;;6.34;59.49;100488.13;4999187;28;20030;-62
2021/03/10 04:45:44;;;;;;;44.22;29.02;;;;;;;6.30;59.83;100492.38;4997349;28;20061;-62
2021/03/10 04:48:10;;;;;;;40.05;28.63;;;;;;;6.24;59.58;100480.66;4991851;28;20019;-62
2021/03/10 04:50:35;;;;;;;40.65;27.40;;;;;;;6.29;60.05;100493.44;4993414;28;20481;-62
2021/03/10 04:53:01;;;;;;;43.38;28.88;;;;;;;6.28;59.86;100495.34;4996540;28;20113;-62
2021/03/10 04:55:26;;;;;;;46.30;28.92;;;;;;;6.28;59.74;100510.78;4998291;28;20018;-62
2021/03/10 04:57:51;;;;;;;43.92;29.30;;;;;;;6.23;59.91;100511.53;4994503;28;20026;-62
2021/03/10 05:00:17;;;;;;;49.30;29.52;;;;;;;6.25;59.79;100508.56;4998098;28;20113;-62
2021/03/10 05:02:43;;;;;;;41.80;28.17;;;;;;;6.20;59.65;100508.50;4997125;28;20022;-62
2021/03/10 05:05:09;;;;;;;43.08;28.25;;;;;;;6.17;59.71;100509.78;4998703;28;20433;-62
2021/03/10 05:07:35;;;;;;;42.92;27.95;;;;;;;6.17;59.81;100506.28;4997725;28;20038;-62
2021/03/10 05:10:00;;;;;;;47.17;29.15;;;;;;;6.16;59.61;100508.13;4996003;28;20026;-62
2021/03/10 05:12:29;;;;;;;42.97;28.05;;;;;;;5.97;59.83;100484.00;4998198;28;20037;-62
2021/03/10 05:14:56;;;;;;;48.05;28.88;;;;;;;6.02;59.82;100501.41;4996636;28;20018;-62
2021/03/10 05:17:22;;;;;;;50.75;30.98;;;;;;;5.96;59.48;100489.66;4996929;28;20054;-62
2021/03/10 05:19:47;;;;;;;47.92;30.92;;;;;;;5.95;59.61;100494.25;4993665;28;20030;-62
2021/03/10 05:22:13;;;;;;;46.35;28.92;;;;;;;5.72;60.01;100459.22;4997832;28;20727;-61
2021/03/10 05:24:38;;;;;;;41.30;28.80;;;;;;;5.95;59.92;100504.28;4997451;28;20022;-62
2021/03/10 05:27:04;;;;;;;42.90;29.35;;;;;;;6.04;59.89;100521.75;4997304;28;20050;-62
2021/03/10 05:29:30;;;;;;;44.17;28.90;;;;;;;6.03;60.02;100517.44;4997754;28;20041;-62
2021/03/10 05:31:56;;;;;;;39.92;28.50;;;;;;;6.04;60.06;100518.25;4997822;28;20381;-62
2021/03/10 05:34:21;;;;;;;40.42;28.48;;;;;;;6.02;60.17;100510.38;4997632;28;20026;-62
2021/03/10 05:36:47;;;;;;;44.35;29.13;;;;;;;6.01;60.02;100524.97;4996477;28;20037;-62
2021/03/10 05:39:13;;;;;;;40.88;29.30;;;;;;;5.99;59.92;100521.69;4995509;28;20022;-62
2021/03/10 05:41:38;;;;;;;43.95;28.27;;;;;;;5.75;59.90;100485.78;4998048;28;20034;-62
2021/03/10 05:44:04;;;;;;;46.40;29.08;;;;;;;5.95;60.06;100528.63;4997143;28;20026;-62
2021/03/10 05:46:30;;;;;;;42.55;29.60;;;;;;;5.84;60.28;100514.09;4977241;28;20023;-62
2021/03/10 05:48:55;;;;;;;42.25;28.65;;;;;;;5.94;60.50;100530.50;4992182;28;20037;-62
2021/03/10 05:51:21;;;;;;;41.38;28.83;;;;;;;5.93;60.12;100528.06;4995732;28;20061;-62
2021/03/10 05:53:46;;;;;;;40.15;28.38;;;;;;;5.90;60.35;100529.38;4997486;28;20449;-62
2021/03/10 05:56:15;;;;;;;43.00;29.33;;;;;;;5.91;60.29;100532.88;4996354;28;20068;-62
2021/03/10 05:58:41;;;;;;;39.20;27.67;;;;;;;5.87;60.01;100542.56;4997073;28;20030;-62
2021/03/10 06:01:06;;;;;;;43.60;29.55;;;;;;;5.63;60.29;100511.03;4995245;28;20023;-62
2021/03/10 06:03:32;;;;;;;42.88;28.27;;;;;;;5.82;60.07;100537.88;4997360;28;20109;-62
2021/03/10 06:05:59;;;;;;;43.10;29.25;;;;;;;5.82;60.05;100546.81;4995608;28;20041;-62
2021/03/10 06:08:30;;;;;;;40.97;28.80;;;;;;;5.81;60.13;100538.94;4997054;28;20037;-62
2021/03/10 06:10:55;;;;;;;42.20;30.15;;;;;;;5.78;60.42;100540.25;4990636;28;20031;-62
2021/03/10 06:13:21;;;;;;;46.33;30.20;;;;;;;5.81;60.26;100547.06;4998471;28;20014;-62
2021/03/10 06:15:47;;;;;;;45.90;29.75;;;;;;;5.73;60.40;100537.44;5003597;28;20026;-62
2021/03/10 06:18:35;;;;;;;45.45;30.40;;;;;;;5.81;60.30;100544.34;5001158;28;20132;-62
2021/03/10 06:21:10;;;;;;;44.15;29.70;;;;;;;5.79;60.25;100532.94;4997054;28;20030;-62
2021/03/10 06:23:37;;;;;;;44.85;29.58;;;;;;;5.68;60.37;100513.81;4985172;28;20053;-61
2021/03/10 06:26:04;;;;;;;46.22;29.85;;;;;;;5.72;60.47;100505.22;4997233;28;20034;-62
2021/03/10 06:28:36;;;;;;;46.72;30.23;;;;;;;5.77;60.08;100516.13;4995882;28;20130;-62
2021/03/10 06:31:01;;;;;;;42.63;29.35;;;;;;;5.75;60.38;100508.25;4997158;28;20092;-62
2021/03/10 06:33:27;;;;;;;43.63;29.77;;;;;;;5.56;60.31;100482.47;4992569;28;20034;-62
2021/03/10 06:35:52;;;;;;;43.47;29.63;;;;;;;5.75;59.91;100523.66;4996878;28;20528;-62
2021/03/10 06:38:19;;;;;;;44.10;29.23;;;;;;;5.75;60.22;100524.50;4997560;28;20031;-62
2021/03/10 06:40:58;;;;;;;45.35;29.60;;;;;;;5.75;59.82;100520.94;4996840;28;20026;-62
2021/03/10 06:43:42;;;;;;;46.70;29.48;;;;;;;5.75;59.82;100529.06;4993952;28;20022;-63
2021/03/10 06:46:18;;;;;;;44.50;29.77;;;;;;;5.71;59.97;100533.34;4994804;28;20481;-63
2021/03/10 06:48:56;;;;;;;42.83;29.38;;;;;;;5.76;59.89;100544.25;4993965;28;20551;-63
2021/03/10 06:51:23;;;;;;;46.65;29.67;;;;;;;5.75;59.44;100551.56;4996463;28;20022;-62
2021/03/10 06:53:49;;;;;;;43.28;29.65;;;;;;;5.75;59.53;100548.00;4996901;28;20034;-63
2021/03/10 06:56:21;;;;;;;46.38;30.85;;;;;;;5.75;59.20;100556.13;4997308;28;20034;-63
2021/03/10 06:59:06;;;;;;;45.67;30.75;;;;;;;5.67;59.11;100541.13;4996647;28;20049;-62
2021/03/10 07:01:41;;;;;;;46.00;29.75;;;;;;;5.76;59.38;100561.31;4996638;28;20038;-62
2021/03/10 07:04:08;;;;;;;41.67;29.50;;;;;;;5.74;59.54;100557.22;4997250;28;20030;-62
2021/03/10 07:06:35;;;;;;;54.90;30.23;;;;;;;5.73;59.44;100552.88;4996711;28;20117;-62
2021/03/10 07:09:03;;;;;;;47.00;31.40;;;;;;;5.67;59.14;100551.94;4983712;28;20037;-62
2021/03/10 07:11:29;;;;;;;42.63;29.98;;;;;;;5.87;59.52;100575.03;4996805;28;20030;-63
2021/03/10 07:13:55;;;;;;;43.70;31.50;;;;;;;5.93;59.00;100579.47;4992048;28;20419;-62
2021/03/10 07:16:22;;;;;;;43.78;31.50;;;;;;;5.94;59.21;100575.72;4994848;28;20121;-62
2021/03/10 07:18:48;;;;;;;45.50;30.17;;;;;;;6.03;59.20;100587.81;4996729;28;20066;-62
2021/03/10 07:21:23;;;;;;;42.60;29.45;;;;;;;6.07;58.90;100582.75;4998525;28;20022;-62
2021/03/10 07:23:52;;;;;;;45.95;30.58;;;;;;;5.93;59.21;100561.34;4995403;28;20034;-62
2021/03/10 07:26:19;;;;;;;42.08;30.08;;;;;;;6.19;59.36;100593.50;5000647;28;20042;-63
2021/03/10 07:28:53;;;;;;;45.58;31.38;;;;;;;6.25;59.24;100600.63;4999756;28;20050;-63
2021/03/10 07:31:23;;;;;;;46.40;30.85;;;;;;;6.30;59.04;100606.13;5000588;28;20121;-63
2021/03/10 07:33:54;;;;;;;50.63;30.77;;;;;;;6.35;59.06;100605.41;5000173;28;20116;-62
2021/03/10 07:36:38;;;;;;;49.67;29.10;;;;;;;6.35;59.22;100614.38;4992848;28;20037;-63
2021/03/10 07:39:06;;;;;;;50.10;30.40;;;;;;;6.28;59.74;100621.81;4994704;28;20030;-63
2021/03/10 07:41:37;;;;;;;45.95;29.27;;;;;;;6.09;59.90;100605.78;5000429;28;20030;-63
2021/03/10 07:44:23;;;;;;;45.78;28.05;;;;;;;6.21;60.20;100621.13;4999153;28;20038;-62
2021/03/10 07:46:50;;;;;;;47.22;28.02;;;;;;;6.07;60.29;100618.75;4998701;28;20035;-62
2021/03/10 07:49:23;;;;;;;39.97;27.75;;;;;;;5.98;60.98;100621.00;5000208;28;20030;-63
2021/03/10 07:51:50;;;;;;;40.92;28.55;;;;;;;5.87;61.04;100602.09;4999995;28;20041;-62
2021/03/10 07:54:27;;;;;;;40.20;27.98;;;;;;;5.97;61.34;100604.97;4999601;28;20026;-62
2021/03/10 07:57:14;;;;;;;41.35;27.67;;;;;;;6.26;61.24;100632.06;4999834;28;20026;-63
2021/03/10 07:59:53;;;;;;;41.30;27.77;;;;;;;6.27;60.92;100623.69;4996377;28;20030;-63
2021/03/10 08:02:18;;;;;;;39.33;27.15;;;;;;;6.21;60.78;100604.88;4998068;28;20034;-63
2021/03/10 08:05:02;;;;;;;40.88;27.83;;;;;;;6.43;60.54;100632.91;4999505;28;20034;-63
2021/03/10 08:07:32;;;;;;;41.40;27.50;;;;;;;6.49;60.46;100638.41;4999903;28;20026;-63
2021/03/10 08:09:58;;;;;;;40.15;27.27;;;;;;;6.54;60.19;100633.06;5000220;28;20037;-62
2021/03/10 08:12:35;;;;;;;43.35;27.45;;;;;;;6.68;60.14;100634.41;4999930;28;20026;-62
2021/03/10 08:15:01;;;;;;;38.35;26.63;;;;;;;6.73;60.33;100636.38;4999634;28;20046;-63
2021/03/10 08:17:28;;;;;;;37.58;26.33;;;;;;;6.75;59.78;100637.75;4998306;28;20049;-63
2021/03/10 08:19:54;;;;;;;44.80;27.05;;;;;;;6.76;60.10;100628.56;4999359;28;20030;-63
2021/03/10 08:22:23;;;;;;;38.83;26.98;;;;;;;6.85;59.95;100634.38;4999603;28;20108;-63
2021/03/10 08:24:49;;;;;;;39.95;26.23;;;;;;;6.96;60.04;100624.50;4993533;28;20039;-63
2021/03/10 08:27:14;;;;;;;35.78;25.55;;;;;;;7.11;59.63;100628.53;4999022;28;20493;-63
2021/03/10 08:29:47;;;;;;;39.33;25.30;;;;;;;7.22;59.17;100633.84;4998929;28;20050;-63
2021/03/10 08:32:23;;;;;;;42.30;27.23;;;;;;;7.16;59.09;100620.47;4997046;28;20034;-63
2021/03/10 08:34:48;;;;;;;38.35;25.88;;;;;;;7.27;58.75;100624.13;4998052;28;20366;-63
2021/03/10 08:37:14;;;;;;;39.88;27.27;;;;;;;7.34;58.92;100619.34;4999403;28;20045;-63
2021/03/10 08:39:44;;;;;;;37.72;26.17;;;;;;;7.42;58.92;100627.03;4999072;28;20429;-63
2021/03/10 08:42:10;;;;;;;36.42;26.42;;;;;;;7.52;58.77;100634.50;4999232;28;20030;-63
2021/03/10 08:44:44;;;;;;;41.22;27.05;;;;;;;7.62;58.88;100622.94;4999272;28;20030;-63
2021/03/10 08:47:31;;;;;;;38.05;25.23;;;;;;;7.72;58.70;100629.31;4993608;28;20038;-63
2021/03/10 08:49:58;;;;;;;38.45;26.30;;;;;;;7.80;58.25;100630.75;4995467;28;20061;-63
2021/03/10 08:52:26;;;;;;;38.97;26.92;;;;;;;7.63;57.92;100600.97;4999102;28;20038;-63
2021/03/10 08:54:59;;;;;;;43.05;27.63;;;;;;;7.83;58.05;100627.53;4995686;28;20634;-63
2021/03/10 08:57:32;;;;;;;37.05;25.25;;;;;;;7.88;57.84;100624.88;4998585;28;20446;-63
2021/03/10 08:59:59;;;;;;;67.05;28.55;;;;;;;7.95;57.96;100632.00;4999133;28;20173;-63
2021/03/10 09:02:34;;;;;;;38.47;27.02;;;;;;;7.86;57.58;100615.31;4998793;28;20161;-63
2021/03/10 09:05:01;;;;;;;;;;;;;;;8.05;57.81;100640.25;4999277;28;20041;-63
2021/03/10 09:07:27;;;;;;;37.95;26.30;;;;;;;8.00;57.69;100629.34;4997764;28;19910;-63
2021/03/10 09:09:55;;;;;;;40.92;26.77;;;;;;;7.96;57.53;100625.50;4993025;28;20157;-63
2021/03/10 09:12:21;;;;;;;40.10;27.75;;;;;;;7.82;57.36;100616.94;4998367;28;20034;-62
2021/03/10 09:14:48;;;;;;;39.45;26.52;;;;;;;7.93;57.49;100632.25;4999005;28;20468;-63
2021/03/10 09:17:13;;;;;;;43.80;29.90;;;;;;;7.95;57.67;100626.56;4998644;28;20042;-63
2021/03/10 09:19:46;;;;;;;38.67;27.23;;;;;;;7.89;57.20;100603.97;4998622;28;20033;-63
2021/03/10 09:22:19;;;;;;;36.92;25.88;;;;;;;8.04;57.16;100622.31;4998776;28;20374;-63
2021/03/10 09:24:52;;;;;;;45.90;28.48;;;;;;;8.10;57.07;100609.63;5000344;28;20113;-63
2021/03/10 09:27:29;;;;;;;49.45;29.75;;;;;;;8.21;57.23;100611.34;4989579;28;20030;-63
2021/03/10 09:30:00;;;;;;;46.20;28.15;;;;;;;8.09;57.17;100570.75;4995401;28;20026;-63
2021/03/10 09:32:36;;;;;;;44.33;27.92;;;;;;;8.26;56.77;100588.84;4993202;28;20033;-63
2021/03/10 09:35:13;;;;;;;43.17;28.25;;;;;;;8.55;56.65;100608.41;4995295;28;20030;-63
2021/03/10 09:37:47;;;;;;;41.47;27.73;;;;;;;8.64;56.14;100609.56;4993127;28;20073;-64
2021/03/10 09:40:14;;;;;;;42.47;27.98;;;;;;;8.69;55.56;100605.22;4994237;28;20046;-63
2021/03/10 09:42:40;;;;;;;38.72;27.50;;;;;;;8.69;55.44;100605.22;4995784;28;20030;-63
2021/03/10 09:45:06;;;;;;;37.85;26.80;;;;;;;8.73;55.44;100603.66;4996076;28;20061;-63
2021/03/10 09:47:31;;;;;;;39.38;27.45;;;;;;;8.79;55.10;100600.72;4995373;28;20033;-63
2021/03/10 09:49:59;;;;;;;36.50;25.40;;;;;;;8.82;54.66;100599.38;4993659;28;20074;-63
2021/03/10 09:52:31;;;;;;;44.30;27.15;;;;;;;8.62;54.80;100565.50;4993094;28;20117;-63
2021/03/10 09:54:57;;;;;;;41.92;27.48;;;;;;;8.93;54.94;100600.25;4996167;28;20041;-63
2021/03/10 09:57:27;;;;;;;35.95;26.75;;;;;;;9.04;54.72;100592.97;4993467;28;20038;-62
2021/03/10 09:59:53;;;;;;;37.85;26.60;;;;;;;9.06;54.14;100580.72;4995081;28;20041;-63
2021/03/10 10:02:18;;;;;;;36.97;27.10;;;;;;;9.22;54.09;100592.53;4995221;28;20042;-63
2021/03/10 10:04:48;;;;;;;36.63;26.15;;;;;;;9.32;53.72;100583.56;4995458;28;20058;-63
2021/03/10 10:07:14;;;;;;;37.17;25.55;;;;;;;9.35;52.98;100572.16;4995397;28;20366;-63
2021/03/10 10:09:40;;;;;;;39.15;26.27;;;;;;;9.45;52.75;100582.28;4991391;28;20105;-63
2021/03/10 10:12:06;;;;;;;46.17;27.63;;;;;;;9.52;52.44;100584.75;4995689;28;20026;-63
2021/03/10 10:14:32;;;;;;;45.10;26.45;;;;;;;9.52;52.27;100573.88;4993780;28;20026;-63
2021/03/10 10:16:57;;;;;;;42.80;26.75;;;;;;;9.53;51.83;100578.22;4994677;28;20045;-62
2021/03/10 10:19:23;;;;;;;41.88;27.27;;;;;;;9.34;52.08;100547.94;4994767;28;20034;-63
2021/03/10 10:21:50;;;;;;;38.25;27.33;;;;;;;9.54;52.00;100577.94;4990609;28;20026;-62
2021/03/10 10:24:16;;;;;;;36.00;25.65;;;;;;;9.59;51.84;100575.22;4994521;28;20112;-63
2021/03/10 10:26:41;;;;;;;34.65;25.38;;;;;;;9.67;52.09;100571.19;4992960;28;20057;-63
2021/03/10 10:29:06;;;;;;;40.17;25.60;;;;;;;9.72;51.84;100570.38;4992600;28;20046;-62
2021/03/10 10:31:32;;;;;;;34.92;25.65;;;;;;;9.84;51.50;100576.38;4991397;28;20041;-62
2021/03/10 10:33:57;;;;;;;41.25;25.50;;;;;;;9.90;51.31;100574.50;4994974;28;20458;-63
2021/03/10 10:36:23;;;;;;;39.33;25.15;;;;;;;9.79;51.18;100541.00;4995310;28;20022;-63
2021/03/10 10:38:48;;;;;;;37.00;24.35;;;;;;;9.99;50.92;100561.19;4993766;28;20062;-63
2021/03/10 10:41:14;;;;;;;30.63;24.05;;;;;;;10.07;50.73;100557.91;4993516;28;20030;-63
2021/03/10 10:43:39;;;;;;;32.10;23.30;;;;;;;10.10;50.45;100557.34;4993913;28;20034;-63
2021/03/10 10:46:04;;;;;;;35.45;24.08;;;;;;;10.14;49.90;100558.47;4993847;28;20160;-63
2021/03/10 10:48:30;;;;;;;33.47;24.27;;;;;;;10.11;50.20;100539.94;4995713;28;20022;-63
2021/03/10 10:50:55;;;;;;;34.85;23.33;;;;;;;10.22;49.74;100549.75;4993499;28;20045;-63
2021/03/10 10:53:21;;;;;;;32.63;23.83;;;;;;;10.28;49.51;100547.84;4993820;28;20031;-63
2021/03/10 10:55:46;;;;;;;35.33;23.50;;;;;;;10.34;49.52;100541.31;4995817;28;20783;-63
2021/03/10 10:58:12;;;;;;;29.50;22.00;;;;;;;10.41;49.29;100534.78;4998489;28;20154;-63
2021/03/10 11:00:37;;;;;;;30.65;22.33;;;;;;;10.46;49.13;100538.31;4997814;28;20373;-63
2021/03/10 11:03:03;;;;;;;28.90;20.83;;;;;;;10.43;48.78;100525.22;4997254;28;20034;-63
2021/03/10 11:05:28;;;;;;;26.17;20.27;;;;;;;10.54;48.69;100529.59;4997747;28;20484;-63
2021/03/10 11:07:53;;;;;;;31.40;20.13;;;;;;;10.53;48.14;100524.41;4996662;28;20022;-63
2021/03/10 11:10:19;;;;;;;28.45;18.70;;;;;;;10.66;47.73;100531.22;4994396;28;20030;-63
2021/03/10 11:12:44;;;;;;;26.27;19.02;;;;;;;10.69;47.53;100534.19;4996293;28;20037;-63
2021/03/10 11:15:10;;;;;;;26.52;18.70;;;;;;;10.74;46.56;100533.38;4999984;28;20026;-63
2021/03/10 11:17:36;;;;;;;26.08;17.70;;;;;;;10.71;46.55;100526.53;4998519;28;20033;-63
2021/03/10 11:20:02;;;;;;;24.20;17.10;;;;;;;10.72;46.24;100527.38;5001238;28;20525;-63
2021/03/10 11:22:28;;;;;;;19.63;15.23;;;;;;;10.73;46.08;100512.66;4998567;28;20029;-63